»·PEaware :: N208CJ KLAX-KSAN

N208CJ :: KLAX-KSAN

FLIGHT INFORMATION

Flight Status: Arrived
Operator: Privately registered:
United States
More flights under this callsign
Pilot: Christopher J. (304)
Aircraft: CESSNA 208 CARAVAN
(C208)
More flights by this aircraft type
Origin: KLAX Los Angeles Intl
United States
Destination: KSAN San Diego Intl-Lindbergh
United States
More flights between these airports :: More routes between these airports
Route: +
File this flight plan on PilotEdge
Remarks:
Altitude:
(Current/Filed)
0ft
Speed:
(Current/Filed)
0kts
Departed: 03-Dec-18 05:52 PM
Arrived: 03-Dec-18 06:36 PM
Distance/Time
Traveled:
95nm/0:44
Distance/Time
To Go:
Arrived

Flight Plot

Page will automatically refresh every two minutes.


Map Options




Map Legend


Flown Route
Filed Route
Departure Airport
Arrival Airport
Navaid (VOR, NDB)
Fix

Horizontal Profiles

Position Reports

Time Latitude Longitude Heading Altitude Ground
Speed
03-Dec-18 17:39 33.933288 -118.400579 172 130ft 0kts
03-Dec-18 17:40 33.933288 -118.400579 172 130ft 0kts
03-Dec-18 17:41 33.933288 -118.400579 172 130ft 0kts
03-Dec-18 17:42 33.933288 -118.400579 172 130ft 0kts
03-Dec-18 17:43 33.933415 -118.400491 347 130ft 2kts
03-Dec-18 17:44 33.934558 -118.398408 84 130ft 18kts
03-Dec-18 17:45 33.935243 -118.391682 83 130ft 16kts
03-Dec-18 17:46 33.935925 -118.384895 83 130ft 18kts
03-Dec-18 17:47 33.936368 -118.382828 32 130ft 1kts
03-Dec-18 17:48 33.936373 -118.382825 32 130ft 0kts
03-Dec-18 17:49 33.936373 -118.382825 32 130ft 0kts
03-Dec-18 17:50 33.936961 -118.382780 352 130ft 10kts
03-Dec-18 17:51 33.934997 -118.407272 256 1073ft 116kts
03-Dec-18 17:52 33.920479 -118.434452 170 1900ft 131kts
03-Dec-18 17:53 33.884373 -118.423617 169 2508ft 136kts
03-Dec-18 17:54 33.849562 -118.412225 169 2629ft 122kts
03-Dec-18 17:55 33.821124 -118.393814 134 2362ft 112kts
03-Dec-18 17:56 33.800422 -118.364017 141 3838ft 121kts
03-Dec-18 17:57 33.779792 -118.337072 122 5188ft 95kts
03-Dec-18 17:58 33.768582 -118.298007 103 4650ft 131kts
03-Dec-18 17:59 33.751868 -118.261527 112 4005ft 95kts
03-Dec-18 18:00 33.744385 -118.231711 127 3364ft 111kts
03-Dec-18 18:01 33.727123 -118.203485 133 2935ft 155kts
03-Dec-18 18:02 33.695945 -118.158888 133 3100ft 183kts
03-Dec-18 18:03 33.662871 -118.112530 132 3461ft 183kts
03-Dec-18 18:04 33.622977 -118.078095 159 3985ft 180kts
03-Dec-18 18:05 33.576522 -118.054614 159 4440ft 182kts
03-Dec-18 18:06 33.534898 -118.019369 144 4987ft 182kts
03-Dec-18 18:07 33.509124 -117.968039 114 5488ft 178kts
03-Dec-18 18:08 33.489054 -117.914794 111 5499ft 177kts
03-Dec-18 18:09 33.472681 -117.862358 111 5496ft 182kts
03-Dec-18 18:10 33.454794 -117.805396 111 5496ft 182kts
03-Dec-18 18:11 33.438011 -117.752361 111 5495ft 163kts
03-Dec-18 18:12 33.421909 -117.702298 111 5496ft 160kts
03-Dec-18 18:13 33.400919 -117.655827 134 5497ft 160kts
03-Dec-18 18:14 33.370370 -117.616918 134 5497ft 161kts
03-Dec-18 18:15 33.339455 -117.577883 134 5497ft 161kts
03-Dec-18 18:16 33.308840 -117.538925 134 5495ft 161kts
03-Dec-18 18:17 33.278744 -117.500271 134 5493ft 154kts
03-Dec-18 18:18 33.249972 -117.463189 134 5464ft 151kts
03-Dec-18 18:19 33.221042 -117.426416 134 5259ft 156kts
03-Dec-18 18:20 33.185816 -117.400660 177 4709ft 153kts
03-Dec-18 18:21 33.143958 -117.396775 154 4179ft 154kts
03-Dec-18 18:22 33.105771 -117.377870 157 3958ft 139kts
03-Dec-18 18:23 33.069376 -117.360453 157 3970ft 147kts
03-Dec-18 18:24 33.032587 -117.342895 158 3968ft 144kts
03-Dec-18 18:25 32.995769 -117.325270 158 3970ft 142kts
03-Dec-18 18:26 32.959213 -117.307693 158 3971ft 142kts
03-Dec-18 18:27 32.924412 -117.290802 158 3968ft 133kts
03-Dec-18 18:28 32.893917 -117.275653 158 3972ft 114kts
03-Dec-18 18:29 32.866188 -117.261532 157 3974ft 105kts
03-Dec-18 18:30 32.839126 -117.247463 158 3883ft 107kts
03-Dec-18 18:31 32.817771 -117.221719 148 2962ft 146kts
03-Dec-18 18:32 32.781963 -117.196721 150 1378ft 151kts
03-Dec-18 18:33 32.750915 -117.173461 118 862ft 111kts
03-Dec-18 18:34 32.732720 -117.164186 220 569ft 82kts
03-Dec-18 18:35 32.732529 -117.185479 289 22ft 29kts
03-Dec-18 18:36 32.733908 -117.188131 6 22ft 2kts
03-Dec-18 18:38 32.734763 -117.188573 343 22ft 6kts
03-Dec-18 18:39 32.735318 -117.189048 311 22ft 0kts
03-Dec-18 18:40 32.735318 -117.189048 311 22ft 0kts

Navigation Log

Ident Type
Flight plan parsing failed, navigation log unavailable